AFL2359 ULLI-VNKT
Flight info
| Callsign | AFL2359 |
|---|---|
| Flight time | N/A |
| Altitude | 37000 |
| Route | SUGIN1A SUGIN DCT VUZPU T490 EZMUB T439 POGAS T747 OLATU T784 OTKOL DCT BUDOM DCT UNABI DCT UBASO/K0898F390 DCT UMDIG DCT ULPON DCT TIRET DCT IDLET DCT LOBRU DCT DENUD M161 GUTAN/K0517F090 A368 URL/K0889F390 DCT ODIVA L162 PINAX/N0503F290 V848 SURVI/N0490F390 DCT IMTIL/N0487F410 DCT PS Z305 LA T400 SULOM M890 CHG DCT DDN W85 HW DCT ONISA DCT MAHEN DCT SUKET DCT PALPA DCT NARAN NARAN1D |
| Aircraft | B77W/H-SDE1E2E3FGHIJ2J3J4J5M1RWXY/LB1D1 |
Departure
| Time | 2026-05-04 06:11 |
|---|---|
| Airport | Pulkovo Airport (ULLI) |
Arrival
| Time | N/A |
|---|---|
| Airport | Tribhuvan International Airport (VNKT) |
| Time | Latitude | Longitude | Altitude | Speed | Heading |
|---|---|---|---|---|---|
| 2026-05-04 05:47 | 59.80304 | 30.26241 | 82 ft | 0 kts | 286° |
| 2026-05-04 05:51 | 59.80257 | 30.26373 | 83 ft | 2 kts | 325° |
| 2026-05-04 05:51 | 59.80244 | 30.26386 | 83 ft | 2 kts | 345° |
| 2026-05-04 05:52 | 59.80229 | 30.26390 | 83 ft | 2 kts | 5° |
| 2026-05-04 05:52 | 59.80220 | 30.26387 | 83 ft | 0 kts | 17° |
| 2026-05-04 05:52 | 59.80218 | 30.26385 | 83 ft | 0 kts | 17° |
| 2026-05-04 05:58 | 59.80223 | 30.26388 | 83 ft | 3 kts | 17° |
| 2026-05-04 05:58 | 59.80263 | 30.26413 | 83 ft | 9 kts | 17° |
| 2026-05-04 05:58 | 59.80331 | 30.26449 | 82 ft | 10 kts | 8° |
| 2026-05-04 05:59 | 59.80401 | 30.26449 | 81 ft | 10 kts | 350° |
| 2026-05-04 05:59 | 59.80447 | 30.26463 | 81 ft | 7 kts | 69° |
| 2026-05-04 05:59 | 59.80444 | 30.26549 | 80 ft | 5 kts | 105° |
| 2026-05-04 05:59 | 59.80434 | 30.26616 | 80 ft | 4 kts | 106° |
| 2026-05-04 06:00 | 59.80425 | 30.26674 | 80 ft | 3 kts | 106° |
| 2026-05-04 06:00 | 59.80419 | 30.26719 | 80 ft | 3 kts | 106° |
| 2026-05-04 06:00 | 59.80413 | 30.26752 | 80 ft | 2 kts | 107° |
| 2026-05-04 06:00 | 59.80410 | 30.26775 | 80 ft | 1 kts | 107° |
| 2026-05-04 06:01 | 59.80403 | 30.26818 | 80 ft | 8 kts | 107° |
| 2026-05-04 06:01 | 59.80374 | 30.27009 | 81 ft | 20 kts | 107° |
| 2026-05-04 06:03 | 59.80183 | 30.28304 | 80 ft | 8 kts | 105° |
| 2026-05-04 06:03 | 59.80167 | 30.28413 | 80 ft | 7 kts | 106° |
| 2026-05-04 06:05 | 59.79991 | 30.29586 | 80 ft | 12 kts | 106° |
| 2026-05-04 06:05 | 59.79949 | 30.29866 | 81 ft | 8 kts | 107° |
| 2026-05-04 06:05 | 59.79941 | 30.29970 | 81 ft | 7 kts | 85° |
| 2026-05-04 06:06 | 59.79960 | 30.30055 | 81 ft | 6 kts | 52° |
| 2026-05-04 06:06 | 59.79973 | 30.30087 | 81 ft | 0 kts | 52° |
| 2026-05-04 06:07 | 59.79978 | 30.30100 | 81 ft | 3 kts | 52° |
| 2026-05-04 06:07 | 59.80008 | 30.30172 | 81 ft | 9 kts | 49° |
| 2026-05-04 06:08 | 59.80052 | 30.30254 | 80 ft | 8 kts | 40° |
| 2026-05-04 06:08 | 59.80100 | 30.30281 | 80 ft | 6 kts | 335° |
| 2026-05-04 06:08 | 59.80129 | 30.30212 | 80 ft | 5 kts | 292° |
| 2026-05-04 06:08 | 59.80135 | 30.30171 | 79 ft | 0 kts | 288° |
| 2026-05-04 06:09 | 59.80199 | 30.29738 | 77 ft | 76 kts | 284° |
| 2026-05-04 06:11 | 59.83002 | 30.10804 | 3693 ft | 236 kts | 284° |
| 2026-05-04 06:11 | 59.83467 | 30.07641 | 4090 ft | 243 kts | 284° |
| 2026-05-04 06:13 | 59.76515 | 29.93234 | 6693 ft | 263 kts | 185° |
| 2026-05-04 06:14 | 59.70343 | 30.11128 | 8927 ft | 303 kts | 108° |
| 2026-05-04 06:14 | 59.69783 | 30.15163 | 9298 ft | 305 kts | 101° |
| 2026-05-04 06:15 | 59.69576 | 30.19315 | 9682 ft | 309 kts | 93° |
| 2026-05-04 06:15 | 59.69505 | 30.23616 | 10064 ft | 313 kts | 92° |
| 2026-05-04 06:15 | 59.69442 | 30.28000 | 10297 ft | 326 kts | 92° |
| 2026-05-04 06:15 | 59.69363 | 30.32560 | 10442 ft | 342 kts | 94° |
| 2026-05-04 06:16 | 59.69017 | 30.37283 | 10618 ft | 357 kts | 102° |
| 2026-05-04 06:16 | 59.68495 | 30.42216 | 10823 ft | 373 kts | 103° |
| 2026-05-04 06:16 | 59.67946 | 30.47295 | 11057 ft | 388 kts | 103° |
| 2026-05-04 06:16 | 59.67382 | 30.52541 | 11223 ft | 394 kts | 103° |
| 2026-05-04 06:17 | 59.66803 | 30.57907 | 11448 ft | 409 kts | 103° |
| 2026-05-04 06:17 | 59.66200 | 30.63494 | 12039 ft | 414 kts | 103° |
| 2026-05-04 06:17 | 59.65597 | 30.69068 | 12678 ft | 419 kts | 104° |
| 2026-05-04 06:17 | 59.65068 | 30.74684 | 13332 ft | 424 kts | 101° |
| 2026-05-04 06:18 | 59.64602 | 30.80518 | 14022 ft | 429 kts | 100° |
| 2026-05-04 06:18 | 59.64136 | 30.86319 | 14708 ft | 435 kts | 100° |
| 2026-05-04 06:18 | 59.63657 | 30.92190 | 15426 ft | 440 kts | 100° |
| 2026-05-04 06:20 | 59.59985 | 31.35539 | 20155 ft | 477 kts | 100° |
| 2026-05-04 06:20 | 59.59423 | 31.41995 | 20831 ft | 480 kts | 100° |
| 2026-05-04 06:21 | 59.57086 | 31.68394 | 23295 ft | 498 kts | 100° |
| 2026-05-04 06:21 | 59.56480 | 31.75135 | 23833 ft | 503 kts | 100° |
| 2026-05-04 06:22 | 59.55865 | 31.81934 | 24375 ft | 508 kts | 100° |
| 2026-05-04 06:22 | 59.55249 | 31.88706 | 24916 ft | 512 kts | 100° |
| 2026-05-04 06:25 | 59.27157 | 32.61626 | 29796 ft | 533 kts | 138° |
| 2026-05-04 06:26 | 59.21841 | 32.71819 | 29791 ft | 533 kts | 139° |
| 2026-05-04 06:26 | 59.16539 | 32.81935 | 29794 ft | 539 kts | 139° |
| 2026-05-04 06:27 | 59.03275 | 33.07056 | 30122 ft | 531 kts | 139° |
| 2026-05-04 06:28 | 59.00640 | 33.12011 | 30318 ft | 531 kts | 139° |
| 2026-05-04 06:28 | 58.97978 | 33.17005 | 30519 ft | 531 kts | 139° |
| 2026-05-04 06:28 | 58.95417 | 33.22157 | 30713 ft | 532 kts | 132° |
| 2026-05-04 06:28 | 58.93238 | 33.27932 | 30895 ft | 534 kts | 123° |
| 2026-05-04 06:29 | 58.91504 | 33.34233 | 31087 ft | 536 kts | 114° |
| 2026-05-04 06:29 | 58.90238 | 33.41010 | 31278 ft | 538 kts | 104° |
| 2026-05-04 06:29 | 58.89345 | 33.48019 | 31481 ft | 536 kts | 101° |
| 2026-05-04 06:29 | 58.88510 | 33.55036 | 31678 ft | 536 kts | 102° |
| 2026-05-04 06:30 | 58.87667 | 33.62052 | 31872 ft | 535 kts | 101° |
| 2026-05-04 06:30 | 58.86826 | 33.68966 | 32062 ft | 534 kts | 102° |
| 2026-05-04 06:30 | 58.85969 | 33.75937 | 32253 ft | 536 kts | 102° |
| 2026-05-04 06:30 | 58.85101 | 33.82928 | 32444 ft | 535 kts | 102° |
| 2026-05-04 06:31 | 58.84230 | 33.89881 | 32638 ft | 534 kts | 102° |
| 2026-05-04 06:31 | 58.83353 | 33.96838 | 32802 ft | 535 kts | 102° |
| 2026-05-04 06:31 | 58.81587 | 34.10703 | 32811 ft | 535 kts | 102° |
| 2026-05-04 06:33 | 58.74336 | 34.66124 | 32828 ft | 533 kts | 103° |
| 2026-05-04 06:34 | 58.72493 | 34.79880 | 32817 ft | 532 kts | 103° |
| 2026-05-04 06:34 | 58.70636 | 34.93617 | 32818 ft | 532 kts | 103° |
| 2026-05-04 06:36 | 58.63055 | 35.48449 | 32842 ft | 532 kts | 103° |
| 2026-05-04 06:37 | 58.61120 | 35.62145 | 32841 ft | 531 kts | 103° |
| 2026-05-04 06:37 | 58.59164 | 35.75863 | 32832 ft | 533 kts | 104° |
| 2026-05-04 06:38 | 58.56357 | 35.88943 | 32841 ft | 533 kts | 116° |
| 2026-05-04 06:40 | 58.43038 | 36.39391 | 32851 ft | 533 kts | 116° |
| 2026-05-04 06:40 | 58.39648 | 36.52001 | 32857 ft | 534 kts | 116° |
| 2026-05-04 06:41 | 58.36259 | 36.64534 | 32856 ft | 533 kts | 116° |
| 2026-05-04 06:41 | 58.32851 | 36.77064 | 32850 ft | 532 kts | 117° |
| 2026-05-04 06:42 | 58.29460 | 36.89465 | 32851 ft | 532 kts | 117° |
| 2026-05-04 06:44 | 58.15730 | 37.38985 | 32860 ft | 531 kts | 117° |
| 2026-05-04 06:44 | 58.12266 | 37.51311 | 32856 ft | 531 kts | 117° |
| 2026-05-04 06:45 | 58.08810 | 37.63544 | 32858 ft | 530 kts | 117° |
| 2026-05-04 06:45 | 58.05323 | 37.75819 | 32853 ft | 530 kts | 118° |
| 2026-05-04 06:46 | 58.01824 | 37.88071 | 32856 ft | 529 kts | 118° |
| 2026-05-04 06:46 | 57.98339 | 38.00210 | 32856 ft | 530 kts | 118° |
| 2026-05-04 06:48 | 57.84257 | 38.48621 | 32867 ft | 529 kts | 117° |
| 2026-05-04 06:50 | 57.70014 | 38.96581 | 32871 ft | 528 kts | 118° |
| 2026-05-04 06:51 | 57.66431 | 39.08493 | 32873 ft | 526 kts | 118° |
| 2026-05-04 06:51 | 57.62837 | 39.20379 | 32874 ft | 527 kts | 118° |
| 2026-05-04 06:52 | 57.59249 | 39.32188 | 32874 ft | 525 kts | 118° |
| 2026-05-04 06:52 | 57.55634 | 39.44024 | 32876 ft | 526 kts | 118° |
| 2026-05-04 06:53 | 57.52009 | 39.55833 | 32877 ft | 525 kts | 118° |
| 2026-05-04 06:53 | 57.48387 | 39.67572 | 32877 ft | 526 kts | 119° |
| 2026-05-04 06:54 | 57.44739 | 39.79339 | 32878 ft | 526 kts | 119° |
| 2026-05-04 06:54 | 57.41104 | 39.91004 | 32879 ft | 524 kts | 119° |
| 2026-05-04 06:55 | 57.37238 | 40.02377 | 32877 ft | 524 kts | 129° |
| 2026-05-04 06:55 | 57.31945 | 40.11537 | 32879 ft | 522 kts | 147° |
| 2026-05-04 06:57 | 57.04988 | 40.29392 | 32887 ft | 517 kts | 161° |
| 2026-05-04 06:58 | 56.98688 | 40.35608 | 32891 ft | 520 kts | 143° |
| 2026-05-04 06:58 | 56.93519 | 40.44799 | 32895 ft | 522 kts | 130° |
| 2026-05-04 06:59 | 56.88770 | 40.54820 | 32885 ft | 520 kts | 130° |
| 2026-05-04 06:59 | 56.84025 | 40.64748 | 32887 ft | 519 kts | 130° |
| 2026-05-04 07:01 | 56.64931 | 41.04026 | 32898 ft | 519 kts | 131° |
| 2026-05-04 07:02 | 56.60195 | 41.13805 | 32889 ft | 518 kts | 127° |
| 2026-05-04 07:02 | 56.55919 | 41.24266 | 32899 ft | 516 kts | 125° |
| 2026-05-04 07:03 | 56.51664 | 41.34672 | 32894 ft | 517 kts | 125° |
| 2026-05-04 07:03 | 56.47351 | 41.45104 | 32895 ft | 515 kts | 125° |
| 2026-05-04 07:04 | 56.43055 | 41.55414 | 32896 ft | 516 kts | 125° |
| 2026-05-04 07:04 | 56.38728 | 41.65728 | 32897 ft | 515 kts | 126° |
| 2026-05-04 07:05 | 56.34406 | 41.75974 | 32896 ft | 516 kts | 126° |
| 2026-05-04 07:05 | 56.30059 | 41.86230 | 32900 ft | 515 kts | 126° |
| 2026-05-04 07:06 | 56.23534 | 42.01537 | 32902 ft | 515 kts | 126° |
| 2026-05-04 07:07 | 56.19174 | 42.11710 | 32903 ft | 514 kts | 126° |
| 2026-05-04 07:09 | 56.03675 | 42.54281 | 32909 ft | 512 kts | 121° |
| 2026-05-04 07:09 | 55.99640 | 42.64774 | 32902 ft | 512 kts | 122° |
| 2026-05-04 07:10 | 55.95580 | 42.75194 | 32905 ft | 511 kts | 123° |
| 2026-05-04 07:12 | 55.79382 | 43.16541 | 32903 ft | 508 kts | 119° |
| 2026-05-04 07:12 | 55.75857 | 43.27404 | 32904 ft | 508 kts | 117° |
| 2026-05-04 07:13 | 55.72387 | 43.38221 | 32906 ft | 507 kts | 117° |
| 2026-05-04 07:13 | 55.68870 | 43.49117 | 32904 ft | 506 kts | 117° |
| 2026-05-04 07:14 | 55.60111 | 43.76017 | 32913 ft | 506 kts | 118° |
| 2026-05-04 07:15 | 55.57066 | 43.87136 | 32911 ft | 504 kts | 112° |
| 2026-05-04 07:15 | 55.54160 | 43.98365 | 32919 ft | 504 kts | 112° |
| 2026-05-04 07:16 | 55.51231 | 44.09610 | 32919 ft | 502 kts | 112° |
| 2026-05-04 07:16 | 55.48323 | 44.20701 | 32923 ft | 503 kts | 112° |
| 2026-05-04 07:17 | 55.45374 | 44.31890 | 32936 ft | 501 kts | 112° |
| 2026-05-04 07:17 | 55.42440 | 44.42963 | 32935 ft | 503 kts | 112° |
| 2026-05-04 07:18 | 55.39494 | 44.54024 | 32932 ft | 502 kts | 112° |
| 2026-05-04 07:18 | 55.36517 | 44.65147 | 32931 ft | 501 kts | 113° |
| 2026-05-04 07:19 | 55.33502 | 44.76149 | 32942 ft | 502 kts | 118° |
| 2026-05-04 07:19 | 55.29254 | 44.85767 | 32942 ft | 505 kts | 136° |
| 2026-05-04 07:20 | 55.23676 | 44.93318 | 32951 ft | 507 kts | 143° |
| 2026-05-04 07:20 | 55.17942 | 45.00460 | 32948 ft | 507 kts | 143° |
| 2026-05-04 07:22 | 54.95032 | 45.28598 | 32962 ft | 504 kts | 144° |
| 2026-05-04 07:23 | 54.89294 | 45.35573 | 32958 ft | 505 kts | 143° |
| 2026-05-04 07:23 | 54.83542 | 45.42540 | 32954 ft | 504 kts | 143° |
| 2026-05-04 07:24 | 54.77787 | 45.49485 | 32963 ft | 504 kts | 143° |
| 2026-05-04 07:24 | 54.72517 | 45.57370 | 32968 ft | 502 kts | 132° |
| 2026-05-04 07:26 | 54.53109 | 45.91749 | 32968 ft | 501 kts | 133° |
| 2026-05-04 07:27 | 54.48217 | 46.00324 | 32976 ft | 501 kts | 133° |
| 2026-05-04 07:27 | 54.43365 | 46.08795 | 32976 ft | 500 kts | 133° |
| 2026-05-04 07:28 | 54.38491 | 46.17274 | 32980 ft | 501 kts | 133° |
| 2026-05-04 07:28 | 54.33605 | 46.25741 | 32980 ft | 500 kts | 132° |
| 2026-05-04 07:29 | 54.28734 | 46.34152 | 32988 ft | 500 kts | 132° |
| 2026-05-04 07:29 | 54.23827 | 46.42592 | 32982 ft | 499 kts | 132° |
| 2026-05-04 07:30 | 54.18953 | 46.50948 | 32990 ft | 500 kts | 132° |
| 2026-05-04 07:30 | 54.14051 | 46.59323 | 32983 ft | 499 kts | 132° |
| 2026-05-04 07:31 | 54.09160 | 46.67648 | 32993 ft | 499 kts | 133° |
| 2026-05-04 07:33 | 53.89516 | 47.00817 | 32959 ft | 499 kts | 133° |
| 2026-05-04 07:33 | 53.84591 | 47.09064 | 32952 ft | 500 kts | 133° |
| 2026-05-04 07:34 | 53.79665 | 47.17284 | 32945 ft | 498 kts | 133° |
| 2026-05-04 07:34 | 53.74720 | 47.25502 | 32949 ft | 499 kts | 133° |
| 2026-05-04 07:35 | 53.69794 | 47.33655 | 32947 ft | 498 kts | 133° |
| 2026-05-04 07:35 | 53.64833 | 47.41838 | 32939 ft | 498 kts | 133° |
| 2026-05-04 07:36 | 53.59909 | 47.49934 | 33000 ft | 500 kts | 133° |
| 2026-05-04 07:38 | 53.40033 | 47.82323 | 32991 ft | 498 kts | 134° |
| 2026-05-04 07:38 | 53.35058 | 47.90361 | 32988 ft | 498 kts | 134° |
| 2026-05-04 07:39 | 53.30075 | 47.98383 | 32989 ft | 497 kts | 134° |
| 2026-05-04 07:39 | 53.25110 | 48.06349 | 32996 ft | 499 kts | 134° |
| 2026-05-04 07:40 | 53.20103 | 48.14355 | 32990 ft | 499 kts | 134° |
| 2026-05-04 07:40 | 53.15095 | 48.22336 | 32995 ft | 498 kts | 134° |
| 2026-05-04 07:41 | 53.10484 | 48.30799 | 32979 ft | 495 kts | 121° |
| 2026-05-04 07:41 | 53.07169 | 48.40755 | 32996 ft | 492 kts | 114° |
| 2026-05-04 07:42 | 53.04065 | 48.50782 | 32988 ft | 492 kts | 114° |
| 2026-05-04 07:42 | 53.00918 | 48.60891 | 32986 ft | 491 kts | 115° |
| 2026-05-04 07:43 | 52.97753 | 48.71003 | 32985 ft | 494 kts | 116° |
| 2026-05-04 07:43 | 52.94584 | 48.81055 | 32969 ft | 495 kts | 117° |
| 2026-05-04 07:44 | 52.90609 | 48.90405 | 32998 ft | 500 kts | 126° |
| 2026-05-04 07:44 | 52.86346 | 48.99472 | 32986 ft | 497 kts | 127° |
| 2026-05-04 07:45 | 52.82103 | 49.08461 | 32989 ft | 498 kts | 127° |
| 2026-05-04 07:45 | 52.77869 | 49.17399 | 32989 ft | 499 kts | 127° |
| 2026-05-04 07:46 | 52.73571 | 49.26440 | 32995 ft | 500 kts | 127° |
| 2026-05-04 07:46 | 52.69302 | 49.35390 | 32965 ft | 499 kts | 128° |
| 2026-05-04 07:47 | 52.65003 | 49.44371 | 32982 ft | 500 kts | 128° |
| 2026-05-04 07:49 | 52.47748 | 49.80103 | 33005 ft | 502 kts | 129° |
| 2026-05-04 07:49 | 52.43400 | 49.89028 | 32998 ft | 500 kts | 130° |
| 2026-05-04 07:50 | 52.39048 | 49.97930 | 32999 ft | 500 kts | 130° |
| 2026-05-04 07:50 | 52.34723 | 50.06746 | 32997 ft | 500 kts | 130° |
| 2026-05-04 07:51 | 52.30391 | 50.15545 | 33006 ft | 499 kts | 130° |
| 2026-05-04 07:51 | 52.26043 | 50.24348 | 33003 ft | 500 kts | 131° |
| 2026-05-04 07:52 | 52.21685 | 50.33139 | 33008 ft | 500 kts | 131° |
| 2026-05-04 07:52 | 52.17308 | 50.41936 | 33006 ft | 500 kts | 131° |
| 2026-05-04 07:54 | 51.99783 | 50.76864 | 33010 ft | 498 kts | 133° |
| 2026-05-04 07:55 | 51.94783 | 50.84354 | 33019 ft | 488 kts | 151° |
| 2026-05-04 07:55 | 51.88768 | 50.89000 | 33017 ft | 476 kts | 167° |
| 2026-05-04 07:56 | 51.82393 | 50.91985 | 33017 ft | 473 kts | 169° |
| 2026-05-04 07:56 | 51.76068 | 50.94810 | 33019 ft | 474 kts | 169° |
| 2026-05-04 07:57 | 51.69746 | 50.97630 | 33013 ft | 474 kts | 167° |
| 2026-05-04 07:57 | 51.63790 | 51.02398 | 33022 ft | 486 kts | 152° |
| 2026-05-04 07:58 | 51.58143 | 51.08395 | 33024 ft | 485 kts | 152° |
| 2026-05-04 07:58 | 51.52547 | 51.14335 | 33025 ft | 485 kts | 152° |
| 2026-05-04 07:59 | 51.46920 | 51.20284 | 33020 ft | 484 kts | 153° |
| 2026-05-04 07:59 | 51.41334 | 51.26212 | 33029 ft | 483 kts | 153° |
| 2026-05-04 08:00 | 51.35759 | 51.32184 | 33033 ft | 483 kts | 153° |
| 2026-05-04 08:02 | 51.13725 | 51.56656 | 33024 ft | 493 kts | 140° |
| 2026-05-04 08:02 | 51.09225 | 51.64999 | 33015 ft | 501 kts | 136° |
| 2026-05-04 08:03 | 51.04758 | 51.73454 | 33008 ft | 496 kts | 137° |
| 2026-05-04 08:03 | 51.00310 | 51.81829 | 33005 ft | 498 kts | 138° |
| 2026-05-04 08:04 | 50.95892 | 51.90117 | 32997 ft | 494 kts | 138° |
| 2026-05-04 08:04 | 50.91445 | 51.98423 | 32995 ft | 497 kts | 138° |
| 2026-05-04 08:05 | 50.86962 | 52.06774 | 32996 ft | 497 kts | 138° |
| 2026-05-04 08:05 | 50.82505 | 52.15046 | 32997 ft | 496 kts | 137° |
| 2026-05-04 08:06 | 50.78027 | 52.23329 | 32999 ft | 498 kts | 137° |
| 2026-05-04 08:06 | 50.73522 | 52.31638 | 32995 ft | 496 kts | 137° |
| 2026-05-04 08:08 | 50.55529 | 52.64548 | 33005 ft | 497 kts | 137° |
| 2026-05-04 08:11 | 50.35232 | 53.01172 | 32983 ft | 495 kts | 137° |
| 2026-05-04 08:11 | 50.28415 | 53.13358 | 32988 ft | 494 kts | 137° |
| 2026-05-04 08:12 | 50.23909 | 53.21379 | 32987 ft | 495 kts | 137° |
| 2026-05-04 08:12 | 50.19364 | 53.29448 | 32988 ft | 493 kts | 137° |
| 2026-05-04 08:13 | 50.14832 | 53.37464 | 32991 ft | 495 kts | 137° |
| 2026-05-04 08:13 | 50.10283 | 53.45488 | 32994 ft | 497 kts | 137° |
| 2026-05-04 08:14 | 50.07984 | 53.49528 | 33182 ft | 503 kts | 137° |
| 2026-05-04 08:14 | 50.05677 | 53.53584 | 33739 ft | 501 kts | 137° |
| 2026-05-04 08:14 | 50.03365 | 53.57645 | 34484 ft | 495 kts | 136° |
| 2026-05-04 08:16 | 49.87389 | 53.85495 | 34972 ft | 494 kts | 137° |
| 2026-05-04 08:16 | 49.82824 | 53.93399 | 34959 ft | 492 kts | 137° |
| 2026-05-04 08:17 | 49.78258 | 54.01279 | 34961 ft | 493 kts | 137° |
| 2026-05-04 08:17 | 49.73678 | 54.09162 | 34953 ft | 491 kts | 137° |
| 2026-05-04 08:19 | 49.55412 | 54.40355 | 34953 ft | 491 kts | 137° |
| 2026-05-04 08:20 | 49.50821 | 54.48136 | 34952 ft | 490 kts | 137° |
| 2026-05-04 08:20 | 49.46250 | 54.55860 | 34951 ft | 491 kts | 136° |
| 2026-05-04 08:21 | 49.41672 | 54.63574 | 34954 ft | 490 kts | 136° |
| 2026-05-04 08:21 | 49.37073 | 54.71299 | 34948 ft | 489 kts | 137° |
| 2026-05-04 08:22 | 49.32483 | 54.78985 | 34949 ft | 489 kts | 137° |
| 2026-05-04 08:24 | 49.14132 | 55.09492 | 34955 ft | 487 kts | 137° |
| 2026-05-04 08:24 | 49.09523 | 55.17097 | 34950 ft | 489 kts | 137° |
| 2026-05-04 08:25 | 49.04922 | 55.24668 | 34943 ft | 488 kts | 137° |
| 2026-05-04 08:25 | 49.00319 | 55.32221 | 34939 ft | 487 kts | 137° |
| 2026-05-04 08:27 | 48.81862 | 55.62280 | 34949 ft | 488 kts | 137° |
| 2026-05-04 08:28 | 48.77224 | 55.69779 | 34943 ft | 486 kts | 138° |
| 2026-05-04 08:28 | 48.72583 | 55.77261 | 34950 ft | 487 kts | 138° |
| 2026-05-04 08:29 | 48.67987 | 55.84652 | 34942 ft | 484 kts | 138° |
| 2026-05-04 08:31 | 48.49471 | 56.14204 | 34931 ft | 483 kts | 138° |
| 2026-05-04 08:33 | 48.30895 | 56.43520 | 34938 ft | 486 kts | 138° |
| 2026-05-04 08:35 | 48.12202 | 56.72689 | 34938 ft | 485 kts | 139° |
| 2026-05-04 08:35 | 48.07534 | 56.79922 | 34938 ft | 485 kts | 138° |
| 2026-05-04 08:37 | 47.91110 | 57.05212 | 34945 ft | 486 kts | 138° |
| 2026-05-04 08:38 | 47.86403 | 57.12414 | 34954 ft | 486 kts | 138° |
| 2026-05-04 08:38 | 47.81684 | 57.19616 | 34953 ft | 485 kts | 138° |
| 2026-05-04 08:40 | 47.62779 | 57.48266 | 34972 ft | 485 kts | 138° |
| 2026-05-04 08:41 | 47.57276 | 57.56546 | 34977 ft | 484 kts | 138° |
| 2026-05-04 08:41 | 47.53335 | 57.62461 | 34975 ft | 484 kts | 138° |
| 2026-05-04 08:42 | 47.48605 | 57.69541 | 34970 ft | 484 kts | 139° |
| 2026-05-04 08:42 | 47.43882 | 57.76591 | 34975 ft | 485 kts | 139° |
| 2026-05-04 08:43 | 47.39156 | 57.83628 | 34981 ft | 484 kts | 138° |
| 2026-05-04 08:43 | 47.34429 | 57.90646 | 34984 ft | 483 kts | 138° |
| 2026-05-04 08:44 | 47.29665 | 57.97701 | 34989 ft | 484 kts | 138° |
| 2026-05-04 08:46 | 47.10652 | 58.25666 | 34994 ft | 484 kts | 138° |
| 2026-05-04 08:46 | 47.05854 | 58.32676 | 35001 ft | 485 kts | 138° |
| 2026-05-04 08:47 | 47.01031 | 58.39703 | 35005 ft | 487 kts | 138° |
| 2026-05-04 08:47 | 46.96232 | 58.46676 | 35003 ft | 487 kts | 138° |
| 2026-05-04 08:48 | 46.91425 | 58.53643 | 35006 ft | 488 kts | 137° |
| 2026-05-04 08:48 | 46.86579 | 58.60648 | 35009 ft | 487 kts | 137° |
| 2026-05-04 08:49 | 46.81751 | 58.67607 | 35003 ft | 486 kts | 139° |
| 2026-05-04 08:50 | 46.64867 | 58.91801 | 35017 ft | 489 kts | 138° |
| 2026-05-04 08:51 | 46.60020 | 58.98705 | 35016 ft | 489 kts | 138° |
| 2026-05-04 08:51 | 46.55123 | 59.05661 | 35020 ft | 488 kts | 138° |
| 2026-05-04 08:52 | 46.50240 | 59.12580 | 35021 ft | 490 kts | 138° |
| 2026-05-04 08:52 | 46.45375 | 59.19456 | 35025 ft | 487 kts | 138° |
| 2026-05-04 08:54 | 46.25905 | 59.46789 | 35035 ft | 489 kts | 138° |
| 2026-05-04 08:55 | 46.21008 | 59.53619 | 35035 ft | 490 kts | 138° |
| 2026-05-04 08:55 | 46.16097 | 59.60450 | 35040 ft | 490 kts | 138° |
| 2026-05-04 09:01 | 45.64247 | 60.31510 | 35053 ft | 492 kts | 139° |
| 2026-05-04 09:01 | 45.59280 | 60.38216 | 35058 ft | 492 kts | 139° |
| 2026-05-04 09:02 | 45.54316 | 60.44902 | 35056 ft | 491 kts | 139° |
| 2026-05-04 09:02 | 45.49352 | 60.51571 | 35057 ft | 492 kts | 139° |
| 2026-05-04 09:03 | 45.44384 | 60.58229 | 35065 ft | 492 kts | 139° |
| 2026-05-04 09:03 | 45.39392 | 60.64900 | 35069 ft | 494 kts | 139° |
| 2026-05-04 09:04 | 45.34374 | 60.71591 | 35065 ft | 492 kts | 139° |
| 2026-05-04 09:04 | 45.29385 | 60.78224 | 35066 ft | 494 kts | 139° |
| 2026-05-04 09:05 | 45.24394 | 60.84845 | 35076 ft | 494 kts | 139° |
| 2026-05-04 09:05 | 45.19382 | 60.91477 | 35075 ft | 493 kts | 139° |
| 2026-05-04 09:06 | 45.14352 | 60.98115 | 35063 ft | 494 kts | 139° |
| 2026-05-04 09:08 | 44.94206 | 61.24536 | 35071 ft | 495 kts | 139° |
| 2026-05-04 09:08 | 44.89156 | 61.31117 | 35072 ft | 494 kts | 139° |
| 2026-05-04 09:09 | 44.84096 | 61.37696 | 35072 ft | 494 kts | 139° |
| 2026-05-04 09:09 | 44.79052 | 61.44237 | 35067 ft | 493 kts | 139° |
| 2026-05-04 09:10 | 44.74014 | 61.50753 | 35068 ft | 494 kts | 139° |
| 2026-05-04 09:10 | 44.68970 | 61.57261 | 35067 ft | 493 kts | 139° |
| 2026-05-04 09:11 | 44.63932 | 61.63746 | 35063 ft | 493 kts | 139° |
| 2026-05-04 09:11 | 44.58893 | 61.70217 | 35053 ft | 492 kts | 140° |
| 2026-05-04 09:12 | 44.53831 | 61.76699 | 35047 ft | 493 kts | 140° |
| 2026-05-04 09:14 | 44.33593 | 62.02464 | 35043 ft | 493 kts | 139° |
| 2026-05-04 09:14 | 44.28514 | 62.08888 | 35038 ft | 494 kts | 139° |
| 2026-05-04 09:15 | 44.23459 | 62.15269 | 35040 ft | 493 kts | 139° |
| 2026-05-04 09:15 | 44.18379 | 62.21665 | 35041 ft | 493 kts | 139° |
| 2026-05-04 09:17 | 43.95483 | 62.50303 | 35030 ft | 495 kts | 139° |
| 2026-05-04 09:18 | 43.90339 | 62.56695 | 35032 ft | 495 kts | 139° |
| 2026-05-04 09:18 | 43.85230 | 62.63027 | 35031 ft | 495 kts | 139° |
| 2026-05-04 09:19 | 43.80075 | 62.69402 | 35025 ft | 495 kts | 140° |
| 2026-05-04 09:19 | 43.74965 | 62.75706 | 35024 ft | 495 kts | 140° |
| 2026-05-04 09:20 | 43.69834 | 62.82019 | 35026 ft | 495 kts | 140° |
| 2026-05-04 09:20 | 43.64681 | 62.88346 | 35026 ft | 496 kts | 140° |
| 2026-05-04 09:21 | 43.59531 | 62.94653 | 35028 ft | 496 kts | 139° |
| 2026-05-04 09:21 | 43.54361 | 63.00970 | 35027 ft | 497 kts | 139° |
| 2026-05-04 09:22 | 43.49218 | 63.07238 | 35030 ft | 498 kts | 139° |
| 2026-05-04 09:22 | 43.44024 | 63.13554 | 35032 ft | 498 kts | 139° |
| 2026-05-04 09:23 | 43.38825 | 63.19862 | 35031 ft | 498 kts | 139° |
| 2026-05-04 09:23 | 43.33648 | 63.26127 | 35032 ft | 498 kts | 139° |
| 2026-05-04 09:25 | 43.12854 | 63.51144 | 35031 ft | 498 kts | 139° |
| 2026-05-04 09:26 | 43.07614 | 63.57413 | 35032 ft | 499 kts | 139° |
| 2026-05-04 09:26 | 43.02420 | 63.63609 | 35029 ft | 500 kts | 139° |
| 2026-05-04 09:27 | 42.97169 | 63.69860 | 35028 ft | 500 kts | 140° |
| 2026-05-04 09:27 | 42.91944 | 63.76067 | 35024 ft | 500 kts | 140° |
| 2026-05-04 09:28 | 42.86656 | 63.82332 | 35027 ft | 499 kts | 140° |
| 2026-05-04 09:28 | 42.81409 | 63.88534 | 35024 ft | 500 kts | 140° |
| 2026-05-04 09:29 | 42.76180 | 63.94701 | 35024 ft | 501 kts | 139° |
| 2026-05-04 09:29 | 42.70903 | 64.00910 | 35020 ft | 502 kts | 140° |
| 2026-05-04 09:30 | 42.65632 | 64.07097 | 35022 ft | 502 kts | 140° |
| 2026-05-04 09:30 | 42.60337 | 64.13251 | 35016 ft | 503 kts | 142° |
| 2026-05-04 09:31 | 42.54781 | 64.18926 | 35016 ft | 503 kts | 144° |
| 2026-05-04 09:31 | 42.49130 | 64.24577 | 35018 ft | 502 kts | 144° |
| 2026-05-04 09:32 | 42.43509 | 64.30163 | 35020 ft | 502 kts | 144° |
| 2026-05-04 09:34 | 42.20918 | 64.52415 | 35028 ft | 505 kts | 144° |
| 2026-05-04 09:34 | 42.15253 | 64.57958 | 35025 ft | 503 kts | 144° |
| 2026-05-04 09:35 | 42.09606 | 64.63470 | 35021 ft | 504 kts | 144° |
| 2026-05-04 09:35 | 42.03896 | 64.69031 | 35009 ft | 504 kts | 144° |
| 2026-05-04 09:37 | 41.81147 | 64.91063 | 34994 ft | 506 kts | 144° |
| 2026-05-04 09:38 | 41.75426 | 64.96571 | 34995 ft | 505 kts | 144° |
| 2026-05-04 09:38 | 41.69725 | 65.02050 | 34994 ft | 507 kts | 144° |
| 2026-05-04 09:39 | 41.63999 | 65.07540 | 34994 ft | 506 kts | 144° |
| 2026-05-04 09:39 | 41.58292 | 65.12999 | 34996 ft | 506 kts | 144° |
| 2026-05-04 09:40 | 41.52558 | 65.18471 | 34997 ft | 507 kts | 144° |
| 2026-05-04 09:40 | 41.46817 | 65.23939 | 34997 ft | 507 kts | 144° |
| 2026-05-04 09:42 | 41.23802 | 65.45736 | 35008 ft | 510 kts | 144° |
| 2026-05-04 09:43 | 41.18033 | 65.51169 | 35006 ft | 511 kts | 144° |
| 2026-05-04 09:43 | 41.12237 | 65.56615 | 35007 ft | 511 kts | 144° |
| 2026-05-04 09:44 | 41.06429 | 65.62059 | 35004 ft | 512 kts | 144° |
| 2026-05-04 09:46 | 40.83060 | 65.83658 | 35006 ft | 514 kts | 145° |
| 2026-05-04 09:46 | 40.77203 | 65.89043 | 35012 ft | 514 kts | 145° |
| 2026-05-04 09:47 | 40.71353 | 65.94408 | 35016 ft | 514 kts | 145° |
| 2026-05-04 09:49 | 40.47856 | 66.15848 | 35036 ft | 515 kts | 145° |
| 2026-05-04 09:51 | 40.27055 | 66.34494 | 35059 ft | 518 kts | 145° |
| 2026-05-04 09:51 | 40.21128 | 66.39816 | 35067 ft | 519 kts | 145° |
| 2026-05-04 09:52 | 40.15174 | 66.45183 | 35060 ft | 520 kts | 145° |
| 2026-05-04 09:52 | 40.09264 | 66.50497 | 35054 ft | 520 kts | 145° |
| 2026-05-04 09:53 | 40.03275 | 66.55870 | 35052 ft | 520 kts | 145° |
| 2026-05-04 09:53 | 39.97346 | 66.61176 | 35041 ft | 520 kts | 145° |
| 2026-05-04 09:54 | 39.91343 | 66.66537 | 35040 ft | 521 kts | 146° |
| 2026-05-04 09:54 | 39.85342 | 66.71885 | 35041 ft | 521 kts | 146° |
| 2026-05-04 09:55 | 39.79371 | 66.77193 | 35039 ft | 522 kts | 146° |
| 2026-05-04 09:55 | 39.73377 | 66.82512 | 35043 ft | 523 kts | 146° |
| 2026-05-04 09:56 | 39.67354 | 66.87843 | 35060 ft | 523 kts | 146° |
| 2026-05-04 09:56 | 39.61345 | 66.93152 | 35069 ft | 522 kts | 146° |
| 2026-05-04 09:57 | 39.55345 | 66.98441 | 35072 ft | 523 kts | 146° |
| 2026-05-04 09:57 | 39.49311 | 67.03748 | 35080 ft | 524 kts | 146° |
| 2026-05-04 09:58 | 39.43314 | 67.09013 | 35108 ft | 522 kts | 146° |
| 2026-05-04 09:58 | 39.37280 | 67.14298 | 35136 ft | 523 kts | 146° |
| 2026-05-04 10:00 | 39.16119 | 67.32715 | 35240 ft | 525 kts | 146° |
| 2026-05-04 10:00 | 39.13117 | 67.35407 | 35229 ft | 525 kts | 143° |
| 2026-05-04 10:04 | 38.70832 | 67.72684 | 35294 ft | 527 kts | 147° |
| 2026-05-04 10:04 | 38.64740 | 67.77784 | 35283 ft | 526 kts | 147° |
| 2026-05-04 10:05 | 38.58576 | 67.82936 | 35273 ft | 527 kts | 147° |
| 2026-05-04 10:05 | 38.52445 | 67.88052 | 35243 ft | 528 kts | 147° |
| 2026-05-04 10:06 | 38.46336 | 67.93139 | 35194 ft | 528 kts | 147° |
| 2026-05-04 10:06 | 38.40179 | 67.98255 | 35159 ft | 528 kts | 147° |
| 2026-05-04 10:08 | 38.18603 | 68.16106 | 35123 ft | 529 kts | 147° |
| 2026-05-04 10:08 | 38.12459 | 68.21167 | 35112 ft | 528 kts | 147° |
| 2026-05-04 10:09 | 38.06307 | 68.26223 | 35096 ft | 527 kts | 147° |
| 2026-05-04 10:09 | 38.00253 | 68.31469 | 35097 ft | 528 kts | 141° |
| 2026-05-04 10:10 | 37.94596 | 68.37424 | 35105 ft | 529 kts | 140° |
| 2026-05-04 10:10 | 37.88955 | 68.43388 | 35110 ft | 529 kts | 140° |
| 2026-05-04 10:11 | 37.83277 | 68.49372 | 35097 ft | 531 kts | 140° |
| 2026-05-04 10:11 | 37.77620 | 68.55318 | 35078 ft | 530 kts | 140° |
| 2026-05-04 10:12 | 37.71965 | 68.61247 | 35052 ft | 530 kts | 140° |
| 2026-05-04 10:12 | 37.66258 | 68.67217 | 35036 ft | 530 kts | 141° |
| 2026-05-04 10:13 | 37.60614 | 68.73106 | 35023 ft | 530 kts | 141° |
| 2026-05-04 10:13 | 37.54925 | 68.79032 | 35027 ft | 531 kts | 141° |
| 2026-05-04 10:14 | 37.49228 | 68.84953 | 35033 ft | 530 kts | 141° |
| 2026-05-04 10:16 | 37.26457 | 69.08455 | 35022 ft | 529 kts | 144° |
| 2026-05-04 10:16 | 37.20092 | 69.13077 | 35030 ft | 530 kts | 154° |
| 2026-05-04 10:17 | 37.13495 | 69.17226 | 35052 ft | 528 kts | 155° |
| 2026-05-04 10:19 | 36.87190 | 69.33657 | 35076 ft | 528 kts | 155° |
| 2026-05-04 10:19 | 36.80608 | 69.37749 | 35105 ft | 529 kts | 155° |
| 2026-05-04 10:20 | 36.74077 | 69.41957 | 35130 ft | 529 kts | 153° |
| 2026-05-04 10:20 | 36.67576 | 69.46240 | 35163 ft | 529 kts | 153° |
| 2026-05-04 10:21 | 36.61087 | 69.50497 | 35152 ft | 526 kts | 153° |
| 2026-05-04 10:21 | 36.54609 | 69.54733 | 35207 ft | 529 kts | 153° |
| 2026-05-04 10:22 | 36.44823 | 69.61114 | 35299 ft | 528 kts | 153° |
| 2026-05-04 10:23 | 36.38332 | 69.65334 | 35378 ft | 529 kts | 154° |
| 2026-05-04 10:25 | 36.12243 | 69.82212 | 35426 ft | 529 kts | 154° |
| 2026-05-04 10:25 | 36.05695 | 69.86427 | 35453 ft | 529 kts | 154° |
| 2026-05-04 10:26 | 35.99167 | 69.90622 | 35500 ft | 528 kts | 154° |
| 2026-05-04 10:26 | 35.92531 | 69.94555 | 35517 ft | 530 kts | 156° |
| 2026-05-04 10:27 | 35.85894 | 69.98393 | 35428 ft | 527 kts | 156° |
| 2026-05-04 10:27 | 35.79243 | 70.02245 | 35407 ft | 528 kts | 156° |
| 2026-05-04 10:28 | 35.72611 | 70.06087 | 35399 ft | 529 kts | 156° |
| 2026-05-04 10:28 | 35.65929 | 70.09956 | 35380 ft | 526 kts | 156° |
| 2026-05-04 10:29 | 35.59300 | 70.13789 | 35395 ft | 528 kts | 156° |
| 2026-05-04 10:29 | 35.52667 | 70.17619 | 35377 ft | 525 kts | 156° |
| 2026-05-04 10:30 | 35.46054 | 70.21430 | 35385 ft | 525 kts | 156° |
| 2026-05-04 10:30 | 35.39458 | 70.25226 | 35376 ft | 525 kts | 156° |
| 2026-05-04 10:31 | 35.32854 | 70.29019 | 35427 ft | 525 kts | 156° |
| 2026-05-04 10:32 | 35.09728 | 70.42350 | 35360 ft | 523 kts | 151° |
| 2026-05-04 10:33 | 35.03466 | 70.46915 | 35334 ft | 526 kts | 149° |
| 2026-05-04 10:33 | 34.97244 | 70.51512 | 35268 ft | 524 kts | 149° |
| 2026-05-04 10:34 | 34.90980 | 70.56126 | 35265 ft | 526 kts | 150° |
| 2026-05-04 10:34 | 34.84707 | 70.60735 | 35268 ft | 525 kts | 150° |
| 2026-05-04 10:35 | 34.78447 | 70.65324 | 35252 ft | 524 kts | 150° |
| 2026-05-04 10:35 | 34.72218 | 70.69882 | 35239 ft | 523 kts | 150° |
| 2026-05-04 10:36 | 34.65986 | 70.74432 | 35219 ft | 524 kts | 150° |
| 2026-05-04 10:36 | 34.59713 | 70.79005 | 35164 ft | 522 kts | 150° |
| 2026-05-04 10:37 | 34.53493 | 70.83530 | 35147 ft | 523 kts | 150° |
| 2026-05-04 10:37 | 34.47288 | 70.88037 | 35130 ft | 521 kts | 150° |
| 2026-05-04 10:39 | 34.28620 | 71.01547 | 35005 ft | 520 kts | 150° |
| 2026-05-04 10:39 | 34.25530 | 71.03777 | 34970 ft | 518 kts | 150° |
| 2026-05-04 10:40 | 34.19347 | 71.08231 | 34978 ft | 520 kts | 150° |
| 2026-05-04 10:40 | 34.13432 | 71.13315 | 34990 ft | 522 kts | 137° |
| 2026-05-04 10:41 | 34.08947 | 71.20153 | 34986 ft | 523 kts | 119° |
| 2026-05-04 10:41 | 34.06148 | 71.28208 | 34965 ft | 523 kts | 108° |
| 2026-05-04 10:42 | 34.03817 | 71.36488 | 34914 ft | 522 kts | 108° |
| 2026-05-04 10:42 | 34.01424 | 71.44743 | 34871 ft | 523 kts | 112° |
| 2026-05-04 10:43 | 33.97693 | 71.52222 | 34838 ft | 522 kts | 130° |
| 2026-05-04 10:45 | 33.76795 | 71.76440 | 34890 ft | 520 kts | 136° |
| 2026-05-04 10:45 | 33.71653 | 71.82587 | 34885 ft | 523 kts | 136° |
| 2026-05-04 10:46 | 33.66533 | 71.88683 | 34867 ft | 522 kts | 136° |
| 2026-05-04 10:46 | 33.61365 | 71.94818 | 34834 ft | 522 kts | 136° |
| 2026-05-04 10:47 | 33.56186 | 72.00950 | 34817 ft | 522 kts | 137° |
| 2026-05-04 10:47 | 33.51075 | 72.07077 | 34807 ft | 521 kts | 136° |
| 2026-05-04 10:49 | 33.30810 | 72.31574 | 34810 ft | 514 kts | 136° |
| 2026-05-04 10:50 | 33.25806 | 72.37591 | 34813 ft | 513 kts | 136° |
| 2026-05-04 10:52 | 33.05718 | 72.61633 | 34817 ft | 512 kts | 136° |
| 2026-05-04 10:52 | 33.00707 | 72.67620 | 34814 ft | 508 kts | 137° |
| 2026-05-04 10:54 | 32.80816 | 72.91312 | 34856 ft | 504 kts | 136° |
| 2026-05-04 10:56 | 32.60953 | 73.14756 | 34818 ft | 503 kts | 137° |
| 2026-05-04 10:57 | 32.55927 | 73.20496 | 34811 ft | 505 kts | 137° |
| 2026-05-04 10:57 | 32.50873 | 73.26262 | 34803 ft | 507 kts | 137° |
| 2026-05-04 10:58 | 32.45789 | 73.32057 | 34808 ft | 504 kts | 137° |
| 2026-05-04 10:58 | 32.40731 | 73.37817 | 34806 ft | 505 kts | 137° |
| 2026-05-04 10:59 | 32.35642 | 73.43602 | 34804 ft | 509 kts | 137° |
| 2026-05-04 10:59 | 32.30551 | 73.49380 | 34803 ft | 508 kts | 136° |
| 2026-05-04 11:00 | 32.25428 | 73.55188 | 34809 ft | 512 kts | 136° |
| 2026-05-04 11:02 | 32.04624 | 73.78670 | 34792 ft | 519 kts | 137° |
| 2026-05-04 11:05 | 31.65486 | 74.23781 | 34771 ft | 527 kts | 135° |
| 2026-05-04 11:06 | 31.60373 | 74.29911 | 34769 ft | 527 kts | 135° |
| 2026-05-04 11:06 | 31.55230 | 74.36062 | 34766 ft | 530 kts | 135° |
| 2026-05-04 11:10 | 31.27649 | 74.84731 | 34736 ft | 533 kts | 105° |
| 2026-05-04 11:12 | 31.19343 | 75.17862 | 34734 ft | 532 kts | 105° |
| 2026-05-04 11:12 | 31.17253 | 75.26130 | 34745 ft | 530 kts | 106° |
| 2026-05-04 11:13 | 31.15173 | 75.34337 | 34753 ft | 528 kts | 106° |
| 2026-05-04 11:13 | 31.13099 | 75.42493 | 34752 ft | 527 kts | 106° |
| 2026-05-04 11:14 | 31.10868 | 75.50571 | 34742 ft | 523 kts | 111° |
| 2026-05-04 11:16 | 31.00345 | 75.82121 | 34769 ft | 517 kts | 112° |
| 2026-05-04 11:16 | 30.97746 | 75.89869 | 34771 ft | 516 kts | 112° |
| 2026-05-04 11:17 | 30.95140 | 75.97622 | 34778 ft | 512 kts | 112° |
| 2026-05-04 11:19 | 30.84692 | 76.28526 | 34799 ft | 514 kts | 113° |
| 2026-05-04 11:19 | 30.82072 | 76.36231 | 34818 ft | 513 kts | 113° |
| 2026-05-04 11:20 | 30.79450 | 76.43925 | 34819 ft | 514 kts | 113° |
| 2026-05-04 11:20 | 30.76804 | 76.51672 | 34816 ft | 515 kts | 113° |
| 2026-05-04 11:22 | 30.66208 | 76.82508 | 34833 ft | 513 kts | 115° |
| 2026-05-04 11:23 | 30.63565 | 76.90143 | 34856 ft | 511 kts | 115° |
| 2026-05-04 11:25 | 30.54269 | 77.16854 | 34924 ft | 510 kts | 116° |
| 2026-05-04 11:25 | 30.51608 | 77.24465 | 34918 ft | 511 kts | 115° |
| 2026-05-04 11:27 | 30.39549 | 77.58740 | 34896 ft | 511 kts | 116° |
| 2026-05-04 11:28 | 30.36852 | 77.66358 | 34886 ft | 512 kts | 117° |
| 2026-05-04 11:28 | 30.34141 | 77.74002 | 34894 ft | 512 kts | 117° |
| 2026-05-04 11:29 | 30.31442 | 77.81595 | 34900 ft | 511 kts | 117° |
| 2026-05-04 11:29 | 30.28727 | 77.89214 | 34922 ft | 510 kts | 117° |
| 2026-05-04 11:31 | 30.18961 | 78.15465 | 34902 ft | 504 kts | 128° |
| 2026-05-04 11:33 | 30.02324 | 78.35635 | 34912 ft | 497 kts | 140° |
| 2026-05-04 11:33 | 29.97428 | 78.41236 | 34939 ft | 495 kts | 140° |
| 2026-05-04 11:34 | 29.92548 | 78.46806 | 34949 ft | 495 kts | 141° |
| 2026-05-04 11:34 | 29.87635 | 78.52402 | 34964 ft | 495 kts | 141° |
| 2026-05-04 11:35 | 29.82736 | 78.57973 | 34943 ft | 493 kts | 141° |
| 2026-05-04 11:35 | 29.77844 | 78.63525 | 34940 ft | 494 kts | 141° |
| 2026-05-04 11:36 | 29.72940 | 78.69084 | 34915 ft | 494 kts | 141° |
| 2026-05-04 11:36 | 29.68033 | 78.74638 | 34907 ft | 494 kts | 141° |
| 2026-05-04 11:37 | 29.63144 | 78.80165 | 34922 ft | 491 kts | 141° |
| 2026-05-04 11:37 | 29.58256 | 78.85678 | 34924 ft | 497 kts | 141° |
| 2026-05-04 11:38 | 29.53357 | 78.91202 | 34925 ft | 492 kts | 141° |
| 2026-05-04 11:38 | 29.48444 | 78.96729 | 34888 ft | 496 kts | 141° |
| 2026-05-04 11:39 | 29.43535 | 79.02246 | 34892 ft | 494 kts | 141° |
| 2026-05-04 11:41 | 29.26348 | 79.21497 | 34855 ft | 494 kts | 142° |
| 2026-05-04 11:41 | 29.21426 | 79.26994 | 34837 ft | 492 kts | 142° |
| 2026-05-04 11:42 | 29.16516 | 79.32466 | 34837 ft | 496 kts | 142° |
| 2026-05-04 11:42 | 29.11607 | 79.37934 | 34838 ft | 493 kts | 142° |
| 2026-05-04 11:43 | 29.06804 | 79.43622 | 34840 ft | 500 kts | 134° |
| 2026-05-04 11:43 | 29.03351 | 79.50653 | 34825 ft | 518 kts | 116° |
| 2026-05-04 11:44 | 29.01786 | 79.58759 | 34828 ft | 529 kts | 101° |
| 2026-05-04 11:44 | 29.01028 | 79.67154 | 34817 ft | 530 kts | 101° |
| 2026-05-04 11:45 | 29.00249 | 79.75474 | 34801 ft | 530 kts | 102° |
| 2026-05-04 11:45 | 28.99436 | 79.83862 | 34799 ft | 529 kts | 102° |
| 2026-05-04 11:46 | 28.98606 | 79.92224 | 34831 ft | 536 kts | 102° |
| 2026-05-04 11:46 | 28.98180 | 79.96446 | 35154 ft | 539 kts | 102° |
| 2026-05-04 11:46 | 28.97753 | 80.00687 | 35907 ft | 534 kts | 102° |
| 2026-05-04 11:46 | 28.97331 | 80.04868 | 36634 ft | 529 kts | 103° |
| 2026-05-04 11:47 | 28.96905 | 80.09031 | 36803 ft | 533 kts | 102° |
| 2026-05-04 11:47 | 28.95684 | 80.17361 | 36832 ft | 523 kts | 112° |
| 2026-05-04 11:48 | 28.93742 | 80.25321 | 36830 ft | 521 kts | 112° |
| 2026-05-04 11:48 | 28.91769 | 80.33289 | 36863 ft | 523 kts | 112° |
| 2026-05-04 11:49 | 28.89836 | 80.41080 | 36895 ft | 520 kts | 112° |
| 2026-05-04 11:49 | 28.87851 | 80.49054 | 36938 ft | 524 kts | 112° |
| 2026-05-04 11:50 | 28.85861 | 80.57032 | 36924 ft | 522 kts | 113° |
| 2026-05-04 11:50 | 28.83881 | 80.64947 | 36912 ft | 523 kts | 112° |